createdAt,value
2018-04-07T00:01:59.989Z,98040
2018-04-07T00:04:28.157Z,98044
2018-04-07T00:06:56.329Z,98041
2018-04-07T00:09:24.495Z,98043
2018-04-07T00:11:52.666Z,98046
2018-04-07T00:14:20.845Z,98044
2018-04-07T00:16:49.033Z,98040
2018-04-07T00:19:17.194Z,98035
2018-04-07T00:21:45.351Z,98039
2018-04-07T00:24:14.282Z,98035
2018-04-07T00:26:42.448Z,98030
2018-04-07T00:29:10.606Z,98031
2018-04-07T00:31:38.773Z,98026
2018-04-07T00:34:06.958Z,98024
2018-04-07T00:36:35.122Z,98025
2018-04-07T00:39:03.320Z,98023
2018-04-07T00:41:31.487Z,98025
2018-04-07T00:43:59.659Z,98020
2018-04-07T00:46:27.854Z,98022
2018-04-07T00:48:56.033Z,98024
2018-04-07T00:51:24.955Z,98022
2018-04-07T00:53:54.863Z,98021
2018-04-07T00:56:23.023Z,98024
2018-04-07T00:58:51.954Z,98018
2018-04-07T01:01:20.884Z,98018
2018-04-07T01:03:49.160Z,98019
2018-04-07T01:06:17.341Z,98023
2018-04-07T01:08:45.505Z,98021
2018-04-07T01:11:13.702Z,98019
2018-04-07T01:13:41.870Z,98025
2018-04-07T01:16:10.034Z,98025
2018-04-07T01:18:38.218Z,98025
2018-04-07T01:21:06.405Z,98030
2018-04-07T01:23:34.603Z,98032
2018-04-07T01:26:02.774Z,98032
2018-04-07T01:28:30.957Z,98033
2018-04-07T01:30:59.930Z,98036
2018-04-07T01:33:28.107Z,98035
2018-04-07T01:35:56.279Z,98038
2018-04-07T01:38:25.327Z,98031
2018-04-07T01:40:53.526Z,98033
2018-04-07T01:43:21.697Z,98033
2018-04-07T01:45:49.907Z,98035
2018-04-07T01:48:18.069Z,98032
2018-04-07T01:50:46.293Z,98031
2018-04-07T01:53:14.470Z,98033
2018-04-07T01:55:42.675Z,98033
2018-04-07T01:58:10.865Z,98035
2018-04-07T02:00:39.800Z,98031
2018-04-07T02:03:08.738Z,98035
2018-04-07T02:05:36.901Z,98036
2018-04-07T02:08:05.073Z,98036
2018-04-07T02:10:33.259Z,98034
2018-04-07T02:13:01.454Z,98035
2018-04-07T02:15:29.625Z,98036
2018-04-07T02:17:57.826Z,98035
2018-04-07T02:20:25.995Z,98032
2018-04-07T02:22:54.164Z,98033
2018-04-07T02:25:22.327Z,98036
2018-04-07T02:27:51.478Z,98038
2018-04-07T02:30:19.692Z,98046
2018-04-07T02:32:47.863Z,98044
2018-04-07T02:35:16.078Z,98045
2018-04-07T02:37:45.010Z,98042
2018-04-07T02:40:13.211Z,98040
2018-04-07T02:42:41.376Z,98044
2018-04-07T02:45:09.545Z,98047
2018-04-07T02:47:37.722Z,98051
2018-04-07T02:50:05.885Z,98044
2018-04-07T02:52:34.052Z,98041
2018-04-07T02:55:02.241Z,98032
2018-04-07T02:57:30.428Z,98026
2018-04-07T02:59:58.600Z,98029
2018-04-07T03:02:26.767Z,98022
2018-04-07T03:04:54.973Z,98023
2018-04-07T03:07:23.139Z,98032
2018-04-07T03:09:51.301Z,98031
2018-04-07T03:12:19.477Z,98029
2018-04-07T03:14:47.643Z,98035
2018-04-07T03:17:15.805Z,98036
2018-04-07T03:19:43.974Z,98035
2018-04-07T03:22:12.169Z,98043
2018-04-07T03:24:40.333Z,98050
2018-04-07T03:27:08.501Z,98039
2018-04-07T03:29:36.666Z,98033
2018-04-07T03:32:04.835Z,98026
2018-04-07T03:34:33.003Z,98029
2018-04-07T03:37:01.182Z,98027
2018-04-07T03:39:29.350Z,98029
2018-04-07T03:41:57.530Z,98028
2018-04-07T03:44:25.699Z,98032
2018-04-07T03:46:53.914Z,98029
2018-04-07T03:49:22.091Z,98019
2018-04-07T03:51:50.262Z,98018
2018-04-07T03:54:18.438Z,98017
2018-04-07T03:56:46.608Z,98023
2018-04-07T03:59:14.787Z,98024
2018-04-07T04:01:42.962Z,98030
2018-04-07T04:04:11.148Z,98028
2018-04-07T04:06:39.309Z,98029
2018-04-07T04:09:07.479Z,98030
2018-04-07T04:11:35.670Z,98028
2018-04-07T04:14:03.901Z,98035
2018-04-07T04:16:32.124Z,98037
2018-04-07T04:19:00.283Z,98030
2018-04-07T04:21:28.463Z,98026
2018-04-07T04:23:56.662Z,98023
2018-04-07T04:26:24.880Z,98025
2018-04-07T04:28:53.059Z,98024
2018-04-07T04:31:21.225Z,98024
2018-04-07T04:33:49.400Z,98022
2018-04-07T04:36:17.574Z,98021
2018-04-07T04:38:45.765Z,98023
2018-04-07T04:41:13.954Z,98026
2018-04-07T04:43:42.131Z,98025
2018-04-07T04:46:10.312Z,98030
2018-04-07T04:48:38.479Z,98024
2018-04-07T04:51:06.650Z,98034
2018-04-07T04:53:34.817Z,98035
2018-04-07T04:56:03.000Z,98033
2018-04-07T04:58:31.163Z,98035
2018-04-07T05:00:59.321Z,98034
2018-04-07T05:03:27.482Z,98031
2018-04-07T05:05:56.417Z,98034
2018-04-07T05:08:24.600Z,98030
2018-04-07T05:10:52.771Z,98029
2018-04-07T05:13:20.934Z,98027
2018-04-07T05:15:49.117Z,98029
2018-04-07T05:18:17.286Z,98026
2018-04-07T05:20:45.460Z,98039
2018-04-07T05:23:13.627Z,98036
2018-04-07T05:25:41.810Z,98031
2018-04-07T05:28:09.986Z,98036
2018-04-07T05:30:38.163Z,98031
2018-04-07T05:33:07.109Z,98041
2018-04-07T05:35:36.052Z,98043
2018-04-07T05:38:04.247Z,98040
2018-04-07T05:40:32.421Z,98044
2018-04-07T05:43:00.601Z,98039
2018-04-07T05:45:28.773Z,98036
2018-04-07T05:47:56.956Z,98038
2018-04-07T05:50:25.134Z,98038
2018-04-07T05:52:54.099Z,98038
2018-04-07T05:55:22.265Z,98035
2018-04-07T05:57:50.437Z,98036
2018-04-07T06:00:18.623Z,98044
2018-04-07T06:02:46.787Z,98041
2018-04-07T06:05:14.958Z,98039
2018-04-07T06:07:43.135Z,98040
2018-04-07T06:10:11.306Z,98037
2018-04-07T06:12:39.522Z,98042
2018-04-07T06:15:08.463Z,98041
2018-04-07T06:17:36.626Z,98046
2018-04-07T06:20:04.857Z,98041
2018-04-07T06:22:33.039Z,98039
2018-04-07T06:25:01.978Z,98044
2018-04-07T06:27:30.156Z,98040
2018-04-07T06:29:58.334Z,98037
2018-04-07T06:32:26.512Z,98038
2018-04-07T06:34:54.708Z,98039
2018-04-07T06:37:23.633Z,98041
2018-04-07T06:39:52.566Z,98043
2018-04-07T06:42:20.727Z,98044
2018-04-07T06:44:48.891Z,98040
2018-04-07T06:47:17.172Z,98036
2018-04-07T06:49:45.349Z,98034
2018-04-07T06:52:13.517Z,98032
2018-04-07T06:54:41.677Z,98034
2018-04-07T06:57:10.622Z,98035
2018-04-07T06:59:38.798Z,98032
2018-04-07T07:02:06.978Z,98026
2018-04-07T07:04:35.150Z,98022
2018-04-07T07:07:03.314Z,98016
2018-04-07T07:09:31.485Z,98018
2018-04-07T07:11:59.667Z,98009
2018-04-07T07:14:27.830Z,98016
2018-04-07T07:16:56.019Z,98016
2018-04-07T07:19:24.204Z,98018
2018-04-07T07:21:52.377Z,98018
2018-04-07T07:24:20.575Z,98013
2018-04-07T07:26:49.538Z,98016
2018-04-07T07:29:17.706Z,98010
2018-04-07T07:31:45.881Z,98008
2018-04-07T07:34:14.088Z,98016
2018-04-07T07:36:42.278Z,98013
2018-04-07T07:39:11.230Z,98008
2018-04-07T07:41:40.172Z,98001
2018-04-07T07:44:09.118Z,98002
2018-04-07T07:46:37.290Z,97994
2018-04-07T07:49:05.503Z,97998
2018-04-07T07:51:34.446Z,97991
2018-04-07T07:54:02.611Z,97990
2018-04-07T07:56:30.780Z,97993
2018-04-07T07:58:58.972Z,98002
2018-04-07T08:01:27.223Z,98003
2018-04-07T08:03:55.398Z,98006
2018-04-07T08:06:23.570Z,98008
2018-04-07T08:08:51.744Z,98005
2018-04-07T08:11:19.938Z,98009
2018-04-07T08:13:48.131Z,98013
2018-04-07T08:16:16.307Z,98014
2018-04-07T08:18:44.510Z,98009
2018-04-07T08:21:12.682Z,98013
2018-04-07T08:23:40.856Z,98011
2018-04-07T08:26:09.044Z,98014
2018-04-07T08:28:37.983Z,98012
2018-04-07T08:31:06.176Z,98009
2018-04-07T08:33:34.378Z,98012
2018-04-07T08:36:03.331Z,98012
2018-04-07T08:38:31.538Z,98012
2018-04-07T08:40:59.734Z,98007
2018-04-07T08:43:28.666Z,98009
2018-04-07T08:45:56.868Z,98015
2018-04-07T08:48:25.059Z,98011
2018-04-07T08:50:53.244Z,98013
2018-04-07T08:53:22.230Z,98004
2018-04-07T08:55:50.386Z,98013
2018-04-07T08:58:18.581Z,98011
2018-04-07T09:00:47.526Z,98008
2018-04-07T09:03:15.707Z,98009
2018-04-07T09:05:43.879Z,98009
2018-04-07T09:08:12.046Z,98008
2018-04-07T09:10:40.229Z,98008
2018-04-07T09:13:08.416Z,98003
2018-04-07T09:15:36.590Z,97998
2018-04-07T09:18:05.525Z,97991
2018-04-07T09:20:34.459Z,97992
2018-04-07T09:23:02.637Z,97987
2018-04-07T09:25:30.825Z,97987
2018-04-07T09:27:59.007Z,97986
2018-04-07T09:30:27.190Z,97985
2018-04-07T09:32:55.363Z,97985
2018-04-07T09:35:23.538Z,97982
2018-04-07T09:37:51.721Z,97981
2018-04-07T09:40:19.898Z,97975
2018-04-07T09:42:48.078Z,97972
2018-04-07T09:45:17.073Z,97970
2018-04-07T09:47:46.019Z,97958
2018-04-07T09:50:14.204Z,97952
2018-04-07T09:52:42.372Z,97959
2018-04-07T09:55:10.544Z,97953
2018-04-07T09:57:38.710Z,97956
2018-04-07T10:00:06.907Z,97944
2018-04-07T10:02:36.028Z,97940
2018-04-07T10:05:04.218Z,97945
2018-04-07T10:07:33.164Z,97934
2018-04-07T10:10:01.346Z,97937
2018-04-07T10:12:29.536Z,97933
2018-04-07T10:14:57.720Z,97939
2018-04-07T10:17:25.894Z,97929
2018-04-07T10:19:54.074Z,97924
2018-04-07T10:22:23.011Z,97927
2018-04-07T10:24:51.182Z,97924
2018-04-07T10:27:19.386Z,97923
2018-04-07T10:29:47.579Z,97925
2018-04-07T10:32:15.779Z,97914
2018-04-07T10:34:44.723Z,97910
2018-04-07T10:37:12.902Z,97905
2018-04-07T10:39:41.076Z,97902
2018-04-07T10:42:09.273Z,97905
2018-04-07T10:44:37.460Z,97903
2018-04-07T10:47:06.406Z,97894
2018-04-07T10:49:34.637Z,97897
2018-04-07T10:52:03.593Z,97889
2018-04-07T10:54:31.767Z,97890
2018-04-07T10:56:59.938Z,97884
2018-04-07T10:59:28.112Z,97877
2018-04-07T11:01:56.302Z,97871
2018-04-07T11:04:24.491Z,97863
2018-04-07T11:06:53.430Z,97854
2018-04-07T11:09:21.599Z,97853
2018-04-07T11:11:49.770Z,97859
2018-04-07T11:14:17.943Z,97860
2018-04-07T11:16:46.106Z,97852
2018-04-07T11:19:14.290Z,97847
2018-04-07T11:21:42.459Z,97846
2018-04-07T11:24:10.641Z,97848
2018-04-07T11:26:38.829Z,97846
2018-04-07T11:29:07.077Z,97845
2018-04-07T11:31:36.013Z,97844
2018-04-07T11:34:04.186Z,97841
2018-04-07T11:36:32.360Z,97844
2018-04-07T11:39:00.538Z,97836
2018-04-07T11:41:28.708Z,97835
2018-04-07T11:43:56.884Z,97836
2018-04-07T11:46:25.054Z,97835
2018-04-07T11:48:53.225Z,97823
2018-04-07T11:51:21.409Z,97812
2018-04-07T11:53:49.583Z,97802
2018-04-07T11:56:17.769Z,97797
2018-04-07T11:58:45.953Z,97799
2018-04-07T12:01:14.131Z,97801
2018-04-07T12:03:42.310Z,97792
2018-04-07T12:06:10.485Z,97791
2018-04-07T12:08:38.658Z,97785
2018-04-07T12:11:06.826Z,97788
2018-04-07T12:13:35.004Z,97778
2018-04-07T12:16:03.203Z,97779
2018-04-07T12:18:32.143Z,97774
2018-04-07T12:21:00.313Z,97768
2018-04-07T12:23:28.479Z,97775
2018-04-07T12:25:56.651Z,97776
2018-04-07T12:28:24.831Z,97765
2018-04-07T12:30:53.011Z,97767
2018-04-07T12:33:21.185Z,97766
2018-04-07T12:35:49.352Z,97767
2018-04-07T12:38:17.526Z,97755
2018-04-07T12:40:45.724Z,97754
2018-04-07T12:43:13.920Z,97746
2018-04-07T12:45:42.098Z,97748
2018-04-07T12:48:10.275Z,97747
2018-04-07T12:50:38.466Z,97739
2018-04-07T12:53:07.407Z,97743
2018-04-07T12:55:35.582Z,97735
2018-04-07T12:58:03.762Z,97737
2018-04-07T13:00:31.940Z,97732
2018-04-07T13:03:00.129Z,97728
2018-04-07T13:05:28.354Z,97725
2018-04-07T13:07:56.528Z,97725
2018-04-07T13:10:24.702Z,97714
2018-04-07T13:12:52.871Z,97708
2018-04-07T13:15:21.170Z,97700
2018-04-07T13:17:49.355Z,97697
2018-04-07T13:20:17.541Z,97686
2018-04-07T13:22:45.713Z,97694
2018-04-07T13:25:13.907Z,97689
2018-04-07T13:27:42.086Z,97696
2018-04-07T13:30:11.063Z,97692
2018-04-07T13:32:39.237Z,97688
2018-04-07T13:35:08.176Z,97684
2018-04-07T13:37:36.346Z,97683
2018-04-07T13:40:05.289Z,97673
2018-04-07T13:42:33.468Z,97666
2018-04-07T13:45:01.644Z,97662
2018-04-07T13:47:29.839Z,97662
2018-04-07T13:49:58.013Z,97663
2018-04-07T13:52:26.263Z,97659
2018-04-07T13:54:54.484Z,97666
2018-04-07T13:57:22.662Z,97664
2018-04-07T13:59:51.602Z,97658
2018-04-07T14:02:19.819Z,97663
2018-04-07T14:04:48.764Z,97657
2018-04-07T14:07:16.939Z,97654
2018-04-07T14:09:45.114Z,97656
2018-04-07T14:12:13.324Z,97649
2018-04-07T14:14:41.526Z,97655
2018-04-07T14:17:09.699Z,97648
2018-04-07T14:19:38.638Z,97646
2018-04-07T14:22:07.577Z,97649
2018-04-07T14:24:36.569Z,97648
2018-04-07T14:27:05.518Z,97643
2018-04-07T14:29:33.694Z,97650
2018-04-07T14:32:01.884Z,97648
2018-04-07T14:34:30.061Z,97645
2018-04-07T14:36:58.247Z,97649
2018-04-07T14:39:27.203Z,97647
2018-04-07T14:41:55.377Z,97649
2018-04-07T14:44:23.549Z,97648
2018-04-07T14:46:51.721Z,97650
2018-04-07T14:49:19.916Z,97650
2018-04-07T14:51:48.093Z,97655
2018-04-07T14:54:16.262Z,97653
2018-04-07T14:56:44.503Z,97654
2018-04-07T14:59:12.630Z,97656
2018-04-07T15:01:40.811Z,97653
2018-04-07T15:04:09.777Z,97656
2018-04-07T15:06:37.959Z,97660
2018-04-07T15:09:06.951Z,97654
2018-04-07T15:11:35.115Z,97663
2018-04-07T15:14:03.300Z,97656
2018-04-07T15:16:31.470Z,97657
2018-04-07T15:18:59.663Z,97661
2018-04-07T15:21:27.842Z,97658
2018-04-07T15:23:56.023Z,97663
2018-04-07T15:26:24.970Z,97667
2018-04-07T15:28:53.137Z,97678
2018-04-07T15:31:21.330Z,97670
2018-04-07T15:33:49.527Z,97674
2018-04-07T15:36:17.717Z,97675
2018-04-07T15:38:46.736Z,97685
2018-04-07T15:41:14.916Z,97676
2018-04-07T15:43:43.092Z,97683
2018-04-07T15:46:11.263Z,97686
2018-04-07T15:48:39.439Z,97686
2018-04-07T15:51:07.678Z,97691
2018-04-07T15:53:35.854Z,97694
2018-04-07T15:56:04.039Z,97695
2018-04-07T15:58:32.983Z,97699
2018-04-07T16:01:01.171Z,97692
2018-04-07T16:03:29.338Z,97698
2018-04-07T16:05:58.467Z,97702
2018-04-07T16:08:26.655Z,97709
2018-04-07T16:10:55.631Z,97706
2018-04-07T16:13:23.811Z,97705
2018-04-07T16:15:52.777Z,97706
2018-04-07T16:18:20.964Z,97707
2018-04-07T16:20:49.158Z,97707
2018-04-07T16:23:18.101Z,97707
2018-04-07T16:25:46.298Z,97709
2018-04-07T16:28:14.467Z,97709
2018-04-07T16:30:42.706Z,97706
2018-04-07T16:33:10.906Z,97702
2018-04-07T16:35:39.356Z,97706
2018-04-07T16:38:07.549Z,97706
2018-04-07T16:40:35.739Z,97705
2018-04-07T16:43:04.679Z,97703
2018-04-07T16:45:33.643Z,97701
2018-04-07T16:48:01.857Z,97703
2018-04-07T16:50:31.493Z,97707
2018-04-07T16:52:59.727Z,97704
2018-04-07T16:55:28.047Z,97710
2018-04-07T16:57:56.220Z,97715
2018-04-07T17:00:24.395Z,97713
2018-04-07T17:02:52.572Z,97714
2018-04-07T17:05:20.822Z,97722
2018-04-07T17:07:49.781Z,97725
2018-04-07T17:10:17.957Z,97713
2018-04-07T17:12:46.203Z,97723
2018-04-07T17:15:14.419Z,97732
2018-04-07T17:17:43.382Z,97728
2018-04-07T17:20:11.563Z,97729
2018-04-07T17:22:39.764Z,97731
2018-04-07T17:25:08.755Z,97727
2018-04-07T17:27:37.723Z,97726
2018-04-07T17:30:05.949Z,97728
2018-04-07T17:32:34.136Z,97726
2018-04-07T17:35:03.089Z,97730
2018-04-07T17:37:31.261Z,97729
2018-04-07T17:39:59.448Z,97728
2018-04-07T17:42:27.644Z,97740
2018-04-07T17:44:55.816Z,97740
2018-04-07T17:47:24.003Z,97744
2018-04-07T17:49:52.954Z,97744
2018-04-07T17:52:21.162Z,97735
2018-04-07T17:54:49.351Z,97742
2018-04-07T17:57:18.296Z,97747
2018-04-07T17:59:47.131Z,97752
2018-04-07T18:02:16.076Z,97758
2018-04-07T18:04:45.209Z,97759
2018-04-07T18:07:13.456Z,97762
2018-04-07T18:09:42.450Z,97762
2018-04-07T18:12:10.634Z,97769
2018-04-07T18:14:38.815Z,97771
2018-04-07T18:17:06.989Z,97772
2018-04-07T18:19:35.166Z,97775
2018-04-07T18:22:03.358Z,97775
2018-04-07T18:24:31.587Z,97782
2018-04-07T18:26:59.766Z,97787
2018-04-07T18:29:27.937Z,97795
2018-04-07T18:31:56.194Z,97799
2018-04-07T18:34:24.370Z,97797
2018-04-07T18:36:52.569Z,97797
2018-04-07T18:39:20.775Z,97801
2018-04-07T18:41:48.944Z,97807
2018-04-07T18:44:17.127Z,97812
2018-04-07T18:46:45.302Z,97814
2018-04-07T18:49:13.487Z,97817
2018-04-07T18:51:42.447Z,97819
2018-04-07T18:54:10.624Z,97819
2018-04-07T18:56:39.713Z,97820
2018-04-07T18:59:08.774Z,97827
2018-04-07T19:01:36.983Z,97825
2018-04-07T19:04:05.934Z,97830
2018-04-07T19:06:34.143Z,97827
2018-04-07T19:09:02.338Z,97827
2018-04-07T19:11:30.542Z,97825
2018-04-07T19:13:59.493Z,97836
2018-04-07T19:16:27.670Z,97826
2018-04-07T19:18:55.845Z,97834
2018-04-07T19:21:24.009Z,97838
2018-04-07T19:23:52.187Z,97836
2018-04-07T19:26:20.375Z,97831
2018-04-07T19:28:48.547Z,97837
2018-04-07T19:31:16.733Z,97834
2018-04-07T19:33:44.929Z,97831
2018-04-07T19:36:13.885Z,97837
2018-04-07T19:38:42.056Z,97832
2018-04-07T19:41:10.251Z,97833
2018-04-07T19:43:38.425Z,97832
2018-04-07T19:46:06.860Z,97837
2018-04-07T19:48:35.070Z,97833
2018-04-07T19:51:03.243Z,97841
2018-04-07T19:53:31.431Z,97843
2018-04-07T19:55:59.615Z,97844
2018-04-07T19:58:27.794Z,97842
2018-04-07T20:00:55.983Z,97842
2018-04-07T20:03:24.925Z,97841
2018-04-07T20:05:53.107Z,97835
2018-04-07T20:08:21.281Z,97836
2018-04-07T20:10:49.451Z,97837
2018-04-07T20:13:17.658Z,97834
2018-04-07T20:15:45.835Z,97831
2018-04-07T20:18:14.010Z,97832
2018-04-07T20:20:42.954Z,97836
2018-04-07T20:23:11.144Z,97838
2018-04-07T20:25:39.318Z,97842
2018-04-07T20:28:08.401Z,97836
2018-04-07T20:30:36.575Z,97839
2018-04-07T20:33:04.747Z,97831
2018-04-07T20:35:32.926Z,97829
2018-04-07T20:38:01.103Z,97838
2018-04-07T20:40:29.286Z,97828
2018-04-07T20:42:58.238Z,97837
2018-04-07T20:45:26.474Z,97835
2018-04-07T20:47:54.659Z,97836
2018-04-07T20:50:22.838Z,97834
2018-04-07T20:52:51.023Z,97829
2018-04-07T20:55:20.706Z,97829
2018-04-07T20:57:48.873Z,97834
2018-04-07T21:00:17.044Z,97827
2018-04-07T21:02:45.225Z,97835
2018-04-07T21:05:13.399Z,97829
2018-04-07T21:07:41.575Z,97835
2018-04-07T21:10:10.526Z,97833
2018-04-07T21:12:38.699Z,97835
2018-04-07T21:15:06.889Z,97838
2018-04-07T21:17:35.074Z,97831
2018-04-07T21:20:03.256Z,97826
2018-04-07T21:22:32.210Z,97825
2018-04-07T21:25:00.397Z,97823
2018-04-07T21:27:28.573Z,97822
2018-04-07T21:29:56.766Z,97823
2018-04-07T21:32:24.960Z,97820
2018-04-07T21:34:53.128Z,97820
2018-04-07T21:37:21.334Z,97816
2018-04-07T21:39:50.276Z,97815
2018-04-07T21:42:18.458Z,97813
2018-04-07T21:44:46.639Z,97808
2018-04-07T21:47:14.808Z,97807
2018-04-07T21:49:42.983Z,97805
2018-04-07T21:52:11.163Z,97807
2018-04-07T21:54:39.336Z,97808
2018-04-07T21:57:07.506Z,97801
2018-04-07T21:59:35.678Z,97804
2018-04-07T22:02:03.871Z,97804
2018-04-07T22:04:32.067Z,97802
2018-04-07T22:07:01.024Z,97798
2018-04-07T22:09:29.206Z,97797
2018-04-07T22:11:57.424Z,97790
2018-04-07T22:14:26.372Z,97789
2018-04-07T22:16:55.363Z,97787
2018-04-07T22:19:23.572Z,97787
2018-04-07T22:21:52.534Z,97789
2018-04-07T22:24:20.724Z,97780
2018-04-07T22:26:48.936Z,97783
2018-04-07T22:29:17.878Z,97781
2018-04-07T22:31:46.091Z,97789
2018-04-07T22:34:15.063Z,97784
2018-04-07T22:36:43.256Z,97776
2018-04-07T22:39:12.251Z,97779
2018-04-07T22:41:41.260Z,97775
2018-04-07T22:44:10.199Z,97775
2018-04-07T22:46:38.374Z,97772
2018-04-07T22:49:06.551Z,97772
2018-04-07T22:51:34.736Z,97773
2018-04-07T22:54:02.947Z,97770
2018-04-07T22:56:31.892Z,97770
2018-04-07T22:59:00.081Z,97768
2018-04-07T23:01:28.281Z,97763
2018-04-07T23:03:57.231Z,97763
2018-04-07T23:06:25.429Z,97756
2018-04-07T23:08:53.645Z,97754
2018-04-07T23:11:21.844Z,97754
2018-04-07T23:13:50.037Z,97753
2018-04-07T23:16:18.233Z,97755
2018-04-07T23:18:46.424Z,97750
2018-04-07T23:21:15.377Z,97749
2018-04-07T23:23:43.603Z,97745
2018-04-07T23:26:12.567Z,97747
2018-04-07T23:28:40.765Z,97746
2018-04-07T23:31:09.713Z,97739
2018-04-07T23:33:37.891Z,97741
2018-04-07T23:36:06.875Z,97738
2018-04-07T23:38:35.056Z,97738
2018-04-07T23:41:03.248Z,97734
2018-04-07T23:43:31.479Z,97731
2018-04-07T23:45:59.650Z,97730
2018-04-07T23:48:27.833Z,97728
2018-04-07T23:50:56.014Z,97729
2018-04-07T23:53:24.207Z,97727
2018-04-07T23:55:52.386Z,97723
2018-04-07T23:58:21.340Z,97716
